sensor_id;sensor_type;location;lat;lon;timestamp;pressure;altitude;pressure_sealevel;temperature;humidity
77793;BME280;66983;51.438;5.438;2023-07-28T00:01:54;100451.81;;;17.70;100.00
77793;BME280;66983;51.438;5.438;2023-07-28T00:04:20;100446.63;;;17.67;100.00
77793;BME280;66983;51.438;5.438;2023-07-28T00:06:45;100441.38;;;17.66;100.00
77793;BME280;66983;51.438;5.438;2023-07-28T00:09:11;100448.13;;;17.71;100.00
77793;BME280;66983;51.438;5.438;2023-07-28T00:11:36;100440.28;;;17.68;100.00
77793;BME280;66983;51.438;5.438;2023-07-28T00:14:02;100446.63;;;17.67;100.00
77793;BME280;66983;51.438;5.438;2023-07-28T00:16:28;100446.63;;;17.67;100.00
77793;BME280;66983;51.438;5.438;2023-07-28T00:18:53;100451.69;;;17.72;100.00
77793;BME280;66983;51.438;5.438;2023-07-28T00:21:19;100450.81;;;17.71;100.00
77793;BME280;66983;51.438;5.438;2023-07-28T00:23:44;100441.88;;;17.71;100.00
77793;BME280;66983;51.438;5.438;2023-07-28T00:26:10;100446.41;;;17.70;100.00
77793;BME280;66983;51.438;5.438;2023-07-28T00:28:35;100437.13;;;17.74;100.00
77793;BME280;66983;51.438;5.438;2023-07-28T00:31:01;100439.06;;;17.72;100.00
77793;BME280;66983;51.438;5.438;2023-07-28T00:33:26;100440.16;;;17.70;100.00
77793;BME280;66983;51.438;5.438;2023-07-28T00:35:52;100440.78;;;17.73;100.00
77793;BME280;66983;51.438;5.438;2023-07-28T00:38:18;100440.78;;;17.73;100.00
77793;BME280;66983;51.438;5.438;2023-07-28T00:40:43;100442.63;;;17.73;100.00
77793;BME280;66983;51.438;5.438;2023-07-28T00:43:09;100442.75;;;17.71;100.00
77793;BME280;66983;51.438;5.438;2023-07-28T00:45:35;100443.50;;;17.73;100.00
77793;BME280;66983;51.438;5.438;2023-07-28T00:48:01;100439.81;;;17.74;100.00
77793;BME280;66983;51.438;5.438;2023-07-28T00:50:27;100445.22;;;17.74;100.00
77793;BME280;66983;51.438;5.438;2023-07-28T00:52:55;100438.84;;;17.75;100.00
77793;BME280;66983;51.438;5.438;2023-07-28T00:55:22;100442.28;;;17.77;100.00
77793;BME280;66983;51.438;5.438;2023-07-28T00:57:47;100434.31;;;17.76;100.00
77793;BME280;66983;51.438;5.438;2023-07-28T01:00:13;100441.94;;;17.82;100.00
77793;BME280;66983;51.438;5.438;2023-07-28T01:02:39;100440.97;;;17.83;100.00
77793;BME280;66983;51.438;5.438;2023-07-28T01:05:07;100447.44;;;17.80;100.00
77793;BME280;66983;51.438;5.438;2023-07-28T01:07:37;100446.47;;;17.81;100.00
77793;BME280;66983;51.438;5.438;2023-07-28T01:10:31;100448.19;;;17.82;100.00
77793;BME280;66983;51.438;5.438;2023-07-28T01:12:58;100450.91;;;17.82;100.00
77793;BME280;66983;51.438;5.438;2023-07-28T01:15:24;100443.78;;;17.81;100.00
77793;BME280;66983;51.438;5.438;2023-07-28T01:17:50;100441.19;;;17.80;100.00
77793;BME280;66983;51.438;5.438;2023-07-28T01:20:16;100444.66;;;17.82;100.00
77793;BME280;66983;51.438;5.438;2023-07-28T01:26:04;100439.38;;;17.80;100.00
77793;BME280;66983;51.438;5.438;2023-07-28T01:28:33;100441.09;;;17.81;100.00
77793;BME280;66983;51.438;5.438;2023-07-28T01:31:04;100442.91;;;17.81;100.00
77793;BME280;66983;51.438;5.438;2023-07-28T01:33:30;100450.16;;;17.80;100.00
77793;BME280;66983;51.438;5.438;2023-07-28T01:35:56;100443.16;;;17.78;100.00
77793;BME280;66983;51.438;5.438;2023-07-28T01:38:23;100447.44;;;17.80;100.00
77793;BME280;66983;51.438;5.438;2023-07-28T01:40:49;100444.75;;;17.80;100.00
77793;BME280;66983;51.438;5.438;2023-07-28T01:43:15;100444.66;;;17.82;100.00
77793;BME280;66983;51.438;5.438;2023-07-28T01:45:40;100445.84;;;17.78;100.00
77793;BME280;66983;51.438;5.438;2023-07-28T01:48:06;100452.63;;;17.83;100.00
77793;BME280;66983;51.438;5.438;2023-07-28T01:50:33;100455.09;;;17.86;100.00
77793;BME280;66983;51.438;5.438;2023-07-28T01:52:59;100450.56;;;17.87;100.00
77793;BME280;66983;51.438;5.438;2023-07-28T01:55:25;100453.25;;;17.87;100.00
77793;BME280;66983;51.438;5.438;2023-07-28T01:57:56;100437.06;;;17.87;100.00
77793;BME280;66983;51.438;5.438;2023-07-28T02:00:22;100440.75;;;17.86;100.00
77793;BME280;66983;51.438;5.438;2023-07-28T02:02:49;100443.22;;;17.89;100.00
77793;BME280;66983;51.438;5.438;2023-07-28T02:05:14;100439.03;;;17.85;100.00
77793;BME280;66983;51.438;5.438;2023-07-28T02:07:41;100455.84;;;17.88;100.00
77793;BME280;66983;51.438;5.438;2023-07-28T02:10:06;100443.09;;;17.90;100.00
77793;BME280;66983;51.438;5.438;2023-07-28T02:12:32;100445.06;;;17.88;100.00
77793;BME280;66983;51.438;5.438;2023-07-28T02:14:58;100454.13;;;17.87;100.00
77793;BME280;66983;51.438;5.438;2023-07-28T02:17:23;100446.13;;;17.86;100.00
77793;BME280;66983;51.438;5.438;2023-07-28T02:19:49;100446.03;;;17.87;100.00
77793;BME280;66983;51.438;5.438;2023-07-28T02:22:14;100448.50;;;17.90;100.00
77793;BME280;66983;51.438;5.438;2023-07-28T02:24:40;100452.91;;;17.91;100.00
77793;BME280;66983;51.438;5.438;2023-07-28T02:27:06;100450.31;;;17.90;100.00
77793;BME280;66983;51.438;5.438;2023-07-28T02:29:31;100451.66;;;17.95;100.00
77793;BME280;66983;51.438;5.438;2023-07-28T02:31:57;100461.59;;;17.95;100.00
77793;BME280;66983;51.438;5.438;2023-07-28T02:34:22;100448.00;;;17.96;100.00
77793;BME280;66983;51.438;5.438;2023-07-28T02:36:48;100450.59;;;17.98;100.00
77793;BME280;66983;51.438;5.438;2023-07-28T02:39:13;100459.53;;;17.98;100.00
77793;BME280;66983;51.438;5.438;2023-07-28T02:41:39;100456.09;;;17.96;100.00
77793;BME280;66983;51.438;5.438;2023-07-28T02:44:04;100457.31;;;17.92;100.00
77793;BME280;66983;51.438;5.438;2023-07-28T02:46:30;100465.91;;;17.97;100.00
77793;BME280;66983;51.438;5.438;2023-07-28T02:48:56;100467.00;;;17.95;100.00
77793;BME280;66983;51.438;5.438;2023-07-28T02:51:21;100467.09;;;17.93;100.00
77793;BME280;66983;51.438;5.438;2023-07-28T02:53:47;100471.63;;;17.93;100.00
77793;BME280;66983;51.438;5.438;2023-07-28T02:56:12;100468.81;;;17.94;100.00
77793;BME280;66983;51.438;5.438;2023-07-28T02:58:38;100475.84;;;17.97;100.00
77793;BME280;66983;51.438;5.438;2023-07-28T03:01:04;100466.13;;;17.94;100.00
77793;BME280;66983;51.438;5.438;2023-07-28T03:03:34;100472.38;;;17.95;100.00
77793;BME280;66983;51.438;5.438;2023-07-28T03:06:00;100471.41;;;17.96;100.00
77793;BME280;66983;51.438;5.438;2023-07-28T03:08:25;100468.81;;;17.94;100.00
77793;BME280;66983;51.438;5.438;2023-07-28T03:10:56;100473.03;;;17.98;100.00
77793;BME280;66983;51.438;5.438;2023-07-28T03:13:22;100480.03;;;18.01;100.00
77793;BME280;66983;51.438;5.438;2023-07-28T03:15:48;100458.16;;;17.93;100.00
77793;BME280;66983;51.438;5.438;2023-07-28T03:18:13;100449.59;;;17.88;100.00
77793;BME280;66983;51.438;5.438;2023-07-28T03:20:39;100476.34;;;18.02;100.00
77793;BME280;66983;51.438;5.438;2023-07-28T03:23:05;100470.09;;;18.02;100.00
77793;BME280;66983;51.438;5.438;2023-07-28T03:25:30;100478.94;;;18.04;100.00
77793;BME280;66983;51.438;5.438;2023-07-28T03:27:56;100476.22;;;18.04;100.00
77793;BME280;66983;51.438;5.438;2023-07-28T03:30:22;100477.22;;;18.03;100.00
77793;BME280;66983;51.438;5.438;2023-07-28T03:32:47;100478.81;;;18.05;100.00
77793;BME280;66983;51.438;5.438;2023-07-28T03:35:13;100480.53;;;18.06;100.00
77793;BME280;66983;51.438;5.438;2023-07-28T03:37:43;100476.88;;;18.07;100.00
77793;BME280;66983;51.438;5.438;2023-07-28T03:40:09;100485.94;;;18.06;100.00
77793;BME280;66983;51.438;5.438;2023-07-28T03:42:44;100488.63;;;18.06;100.00
77793;BME280;66983;51.438;5.438;2023-07-28T03:45:13;100489.50;;;18.07;100.00
77793;BME280;66983;51.438;5.438;2023-07-28T03:47:38;100503.84;;;18.07;100.00
77793;BME280;66983;51.438;5.438;2023-07-28T03:50:05;100503.19;;;18.04;100.00
77793;BME280;66983;51.438;5.438;2023-07-28T03:52:31;100520.03;;;18.07;100.00
77793;BME280;66983;51.438;5.438;2023-07-28T03:54:56;100496.94;;;18.03;100.00
77793;BME280;66983;51.438;5.438;2023-07-28T03:57:22;100505.03;;;18.03;100.00
77793;BME280;66983;51.438;5.438;2023-07-28T03:59:48;100504.19;;;18.03;100.00
77793;BME280;66983;51.438;5.438;2023-07-28T04:02:13;100490.41;;;17.94;100.00
77793;BME280;66983;51.438;5.438;2023-07-28T04:04:39;100509.69;;;18.01;100.00
77793;BME280;66983;51.438;5.438;2023-07-28T04:07:04;100503.44;;;18.01;100.00
77793;BME280;66983;51.438;5.438;2023-07-28T04:09:30;100512.50;;;18.00;100.00
77793;BME280;66983;51.438;5.438;2023-07-28T04:11:55;100498.91;;;18.01;100.00
77793;BME280;66983;51.438;5.438;2023-07-28T04:14:21;100512.28;;;18.03;100.00
77793;BME280;66983;51.438;5.438;2023-07-28T04:16:47;100504.06;;;18.04;100.00
77793;BME280;66983;51.438;5.438;2023-07-28T04:19:12;100504.94;;;18.05;100.00
77793;BME280;66983;51.438;5.438;2023-07-28T04:21:38;100500.41;;;18.05;100.00
77793;BME280;66983;51.438;5.438;2023-07-28T04:24:09;100503.94;;;18.06;100.00
77793;BME280;66983;51.438;5.438;2023-07-28T04:26:38;100499.53;;;18.05;100.00
77793;BME280;66983;51.438;5.438;2023-07-28T04:29:04;100509.97;;;18.09;100.00
77793;BME280;66983;51.438;5.438;2023-07-28T04:31:30;100500.16;;;18.08;100.00
77793;BME280;66983;51.438;5.438;2023-07-28T04:34:02;100495.63;;;18.09;100.00
77793;BME280;66983;51.438;5.438;2023-07-28T04:36:45;100500.78;;;18.12;100.00
77793;BME280;66983;51.438;5.438;2023-07-28T04:39:15;100501.66;;;18.12;100.00
77793;BME280;66983;51.438;5.438;2023-07-28T04:41:40;100490.88;;;18.12;100.00
77793;BME280;66983;51.438;5.438;2023-07-28T04:44:06;100496.25;;;18.12;100.00
77793;BME280;66983;51.438;5.438;2023-07-28T04:46:36;100498.97;;;18.12;100.00
77793;BME280;66983;51.438;5.438;2023-07-28T04:49:06;100502.53;;;18.13;100.00
77793;BME280;66983;51.438;5.438;2023-07-28T04:52:07;100505.84;;;18.16;100.00
77793;BME280;66983;51.438;5.438;2023-07-28T04:54:55;100506.59;;;18.18;100.00
77793;BME280;66983;51.438;5.438;2023-07-28T04:57:20;100510.16;;;18.19;100.00
77793;BME280;66983;51.438;5.438;2023-07-28T04:59:46;100512.84;;;18.19;100.00
77793;BME280;66983;51.438;5.438;2023-07-28T05:02:12;100517.00;;;18.23;100.00
77793;BME280;66983;51.438;5.438;2023-07-28T05:04:37;100510.63;;;18.24;100.00
77793;BME280;66983;51.438;5.438;2023-07-28T05:07:04;100522.94;;;18.28;100.00
77793;BME280;66983;51.438;5.438;2023-07-28T05:09:30;100521.19;;;18.27;100.00
77793;BME280;66983;51.438;5.438;2023-07-28T05:11:56;100524.00;;;18.25;100.00
77793;BME280;66983;51.438;5.438;2023-07-28T05:14:21;100529.28;;;18.27;100.00
77793;BME280;66983;51.438;5.438;2023-07-28T05:16:47;100530.91;;;18.29;100.00
77793;BME280;66983;51.438;5.438;2023-07-28T05:19:24;100531.53;;;18.33;100.00
77793;BME280;66983;51.438;5.438;2023-07-28T05:22:08;100538.44;;;18.37;100.00
77793;BME280;66983;51.438;5.438;2023-07-28T05:24:43;100540.16;;;18.38;100.00
77793;BME280;66983;51.438;5.438;2023-07-28T05:27:10;100545.31;;;18.41;100.00
77793;BME280;66983;51.438;5.438;2023-07-28T05:29:36;100545.09;;;18.44;100.00
77793;BME280;66983;51.438;5.438;2023-07-28T05:32:05;100551.94;;;18.48;100.00
77793;BME280;66983;51.438;5.438;2023-07-28T05:34:37;100548.28;;;18.49;100.00
77793;BME280;66983;51.438;5.438;2023-07-28T05:37:03;100551.81;;;18.50;100.00
77793;BME280;66983;51.438;5.438;2023-07-28T05:39:31;100542.41;;;18.55;100.00
77793;BME280;66983;51.438;5.438;2023-07-28T05:41:57;100558.38;;;18.58;100.00
77793;BME280;66983;51.438;5.438;2023-07-28T05:44:23;100554.72;;;18.59;100.00
77793;BME280;66983;51.438;5.438;2023-07-28T05:46:48;100562.91;;;18.58;100.00
77793;BME280;66983;51.438;5.438;2023-07-28T05:49:15;100548.56;;;18.57;100.00
77793;BME280;66983;51.438;5.438;2023-07-28T05:51:41;100554.72;;;18.59;100.00
77793;BME280;66983;51.438;5.438;2023-07-28T05:54:06;100564.09;;;18.67;100.00
77793;BME280;66983;51.438;5.438;2023-07-28T05:56:32;100571.94;;;18.70;100.00
77793;BME280;66983;51.438;5.438;2023-07-28T05:58:58;100559.53;;;18.67;100.00
77793;BME280;66983;51.438;5.438;2023-07-28T06:01:24;100565.41;;;18.72;100.00
77793;BME280;66983;51.438;5.438;2023-07-28T06:04:10;100566.16;;;18.74;100.00
77793;BME280;66983;51.438;5.438;2023-07-28T06:06:41;100568.63;;;18.77;100.00
77793;BME280;66983;51.438;5.438;2023-07-28T06:09:07;100566.91;;;18.76;100.00
77793;BME280;66983;51.438;5.438;2023-07-28T06:11:34;100564.09;;;18.78;100.00
77793;BME280;66983;51.438;5.438;2023-07-28T06:14:00;100559.03;;;18.73;100.00
77793;BME280;66983;51.438;5.438;2023-07-28T06:16:26;100559.56;;;18.78;100.00
77793;BME280;66983;51.438;5.438;2023-07-28T06:18:52;100566.44;;;18.82;100.00
77793;BME280;66983;51.438;5.438;2023-07-28T06:21:20;100564.25;;;18.87;100.00
77793;BME280;66983;51.438;5.438;2023-07-28T06:23:46;100573.84;;;18.91;100.00
77793;BME280;66983;51.438;5.438;2023-07-28T06:26:12;100565.75;;;18.91;100.00
77793;BME280;66983;51.438;5.438;2023-07-28T06:28:39;100577.41;;;18.92;100.00
77793;BME280;66983;51.438;5.438;2023-07-28T06:31:05;100553.28;;;18.78;100.00
77793;BME280;66983;51.438;5.438;2023-07-28T06:33:31;100573.97;;;18.90;100.00
77793;BME280;66983;51.438;5.438;2023-07-28T06:35:58;100579.38;;;18.90;100.00
77793;BME280;66983;51.438;5.438;2023-07-28T06:38:24;100581.09;;;18.91;100.00
77793;BME280;66983;51.438;5.438;2023-07-28T06:40:49;100581.09;;;18.91;100.00
77793;BME280;66983;51.438;5.438;2023-07-28T06:43:15;100580.34;;;18.89;100.00
77793;BME280;66983;51.438;5.438;2023-07-28T06:45:41;100584.41;;;18.94;100.00
77793;BME280;66983;51.438;5.438;2023-07-28T06:48:07;100587.72;;;18.98;100.00
77793;BME280;66983;51.438;5.438;2023-07-28T06:50:32;100584.16;;;18.97;100.00
77793;BME280;66983;51.438;5.438;2023-07-28T06:52:58;100583.03;;;19.00;100.00
77793;BME280;66983;51.438;5.438;2023-07-28T06:55:25;100582.81;;;19.03;100.00
77793;BME280;66983;51.438;5.438;2023-07-28T06:57:51;100571.50;;;18.98;100.00
77793;BME280;66983;51.438;5.438;2023-07-28T07:00:17;100598.31;;;19.12;100.00
77793;BME280;66983;51.438;5.438;2023-07-28T07:02:44;100589.34;;;19.12;100.00
77793;BME280;66983;51.438;5.438;2023-07-28T07:05:09;100588.47;;;19.11;100.00
77793;BME280;66983;51.438;5.438;2023-07-28T07:07:35;100597.44;;;19.23;100.00
77793;BME280;66983;51.438;5.438;2023-07-28T07:10:01;100601.75;;;19.25;100.00
77793;BME280;66983;51.438;5.438;2023-07-28T07:12:26;100598.19;;;19.25;100.00
77793;BME280;66983;51.438;5.438;2023-07-28T07:14:52;100595.59;;;19.23;100.00
77793;BME280;66983;51.438;5.438;2023-07-28T07:17:17;100605.19;;;19.27;100.00
77793;BME280;66983;51.438;5.438;2023-07-28T07:19:43;100604.56;;;19.24;100.00
77793;BME280;66983;51.438;5.438;2023-07-28T07:22:09;100607.16;;;19.25;100.00
77793;BME280;66983;51.438;5.438;2023-07-28T07:24:34;100606.69;;;19.31;100.00
77793;BME280;66983;51.438;5.438;2023-07-28T07:27:00;100607.66;;;19.30;99.71
77793;BME280;66983;51.438;5.438;2023-07-28T07:29:26;100605.94;;;19.29;99.73
77793;BME280;66983;51.438;5.438;2023-07-28T07:31:51;100606.28;;;19.25;100.00
77793;BME280;66983;51.438;5.438;2023-07-28T07:34:22;100610.59;;;19.27;100.00
77793;BME280;66983;51.438;5.438;2023-07-28T07:36:47;100614.03;;;19.29;100.00
77793;BME280;66983;51.438;5.438;2023-07-28T07:39:13;100612.81;;;19.33;100.00
77793;BME280;66983;51.438;5.438;2023-07-28T07:41:39;100618.00;;;19.37;100.00
77793;BME280;66983;51.438;5.438;2023-07-28T07:44:04;100613.81;;;19.32;99.36
77793;BME280;66983;51.438;5.438;2023-07-28T07:46:30;100618.75;;;19.39;98.85
77793;BME280;66983;51.438;5.438;2023-07-28T07:48:55;100630.78;;;19.46;99.13
77793;BME280;66983;51.438;5.438;2023-07-28T07:51:21;100615.66;;;19.43;98.33
77793;BME280;66983;51.438;5.438;2023-07-28T07:53:47;100629.44;;;19.51;99.14
77793;BME280;66983;51.438;5.438;2023-07-28T07:56:12;100637.19;;;19.56;98.78
77793;BME280;66983;51.438;5.438;2023-07-28T07:58:38;100629.72;;;19.59;99.11
77793;BME280;66983;51.438;5.438;2023-07-28T08:01:03;100627.63;;;19.63;98.25
77793;BME280;66983;51.438;5.438;2023-07-28T08:03:29;100625.91;;;19.62;97.03
77793;BME280;66983;51.438;5.438;2023-07-28T08:05:55;100631.94;;;19.65;97.27
77793;BME280;66983;51.438;5.438;2023-07-28T08:08:21;100633.53;;;19.68;97.40
77793;BME280;66983;51.438;5.438;2023-07-28T08:10:47;100629.09;;;19.67;97.59
77793;BME280;66983;51.438;5.438;2023-07-28T08:13:13;100631.69;;;19.69;98.10
77793;BME280;66983;51.438;5.438;2023-07-28T08:15:39;100634.28;;;19.70;97.41
77793;BME280;66983;51.438;5.438;2023-07-28T08:18:04;100636.47;;;19.76;97.96
77793;BME280;66983;51.438;5.438;2023-07-28T08:20:30;100650.97;;;19.86;96.23
77793;BME280;66983;51.438;5.438;2023-07-28T08:22:56;100640.16;;;19.86;96.02
77793;BME280;66983;51.438;5.438;2023-07-28T08:25:21;100636.94;;;19.81;96.56
77793;BME280;66983;51.438;5.438;2023-07-28T08:27:49;100651.72;;;19.88;95.50
77793;BME280;66983;51.438;5.438;2023-07-28T08:30:15;100640.41;;;19.83;95.87
77793;BME280;66983;51.438;5.438;2023-07-28T08:32:43;100648.63;;;19.93;96.90
77793;BME280;66983;51.438;5.438;2023-07-28T08:35:10;100646.16;;;20.01;96.31
77793;BME280;66983;51.438;5.438;2023-07-28T08:37:35;100656.13;;;20.12;95.44
77793;BME280;66983;51.438;5.438;2023-07-28T08:40:02;100646.75;;;20.16;94.16
77793;BME280;66983;51.438;5.438;2023-07-28T08:42:30;100657.41;;;20.28;94.40
77793;BME280;66983;51.438;5.438;2023-07-28T08:44:56;100653.75;;;20.41;93.19
77793;BME280;66983;51.438;5.438;2023-07-28T08:47:22;100653.13;;;20.48;92.69
77793;BME280;66983;51.438;5.438;2023-07-28T08:49:48;100660.56;;;20.67;92.24
77793;BME280;66983;51.438;5.438;2023-07-28T08:52:17;100652.25;;;20.80;92.72
77793;BME280;66983;51.438;5.438;2023-07-28T08:54:43;100650.44;;;21.01;91.29
77793;BME280;66983;51.438;5.438;2023-07-28T08:57:09;100654.50;;;21.27;88.20
77793;BME280;66983;51.438;5.438;2023-07-28T08:59:35;100650.06;;;21.47;87.10
77793;BME280;66983;51.438;5.438;2023-07-28T09:02:02;100655.38;;;21.58;85.83
77793;BME280;66983;51.438;5.438;2023-07-28T09:04:28;100652.25;;;21.63;86.25
77793;BME280;66983;51.438;5.438;2023-07-28T09:06:53;100662.53;;;21.59;86.69
77793;BME280;66983;51.438;5.438;2023-07-28T09:09:21;100664.81;;;21.54;85.43
77793;BME280;66983;51.438;5.438;2023-07-28T09:11:49;100668.63;;;21.52;86.39
77793;BME280;66983;51.438;5.438;2023-07-28T09:14:17;100659.25;;;21.56;86.17
77793;BME280;66983;51.438;5.438;2023-07-28T09:16:47;100655.56;;;21.66;84.99
77793;BME280;66983;51.438;5.438;2023-07-28T09:19:13;100655.56;;;21.66;85.23
77793;BME280;66983;51.438;5.438;2023-07-28T09:21:42;100654.72;;;21.66;86.17
77793;BME280;66983;51.438;5.438;2023-07-28T09:24:09;100659.47;;;21.74;85.47
77793;BME280;66983;51.438;5.438;2023-07-28T09:26:40;100657.94;;;21.81;85.07
77793;BME280;66983;51.438;5.438;2023-07-28T09:29:19;100660.22;;;21.85;85.44
77793;BME280;66983;51.438;5.438;2023-07-28T09:31:49;100664.50;;;21.88;83.71
77793;BME280;66983;51.438;5.438;2023-07-28T09:34:27;100661.94;;;21.86;84.08
77793;BME280;66983;51.438;5.438;2023-07-28T09:36:54;100660.94;;;21.87;85.34
77793;BME280;66983;51.438;5.438;2023-07-28T09:39:21;100665.03;;;22.03;82.65
77793;BME280;66983;51.438;5.438;2023-07-28T09:41:47;100662.78;;;22.08;81.71
77793;BME280;66983;51.438;5.438;2023-07-28T09:44:14;100667.03;;;22.10;81.01
77793;BME280;66983;51.438;5.438;2023-07-28T09:46:54;100679.06;;;22.08;81.49
77793;BME280;66983;51.438;5.438;2023-07-28T09:49:28;100670.34;;;22.04;82.00
77793;BME280;66983;51.438;5.438;2023-07-28T09:51:58;100669.47;;;22.04;82.69
77793;BME280;66983;51.438;5.438;2023-07-28T09:54:28;100670.19;;;22.06;81.16
77793;BME280;66983;51.438;5.438;2023-07-28T09:56:58;100673.63;;;22.08;80.42
77793;BME280;66983;51.438;5.438;2023-07-28T09:59:51;100667.50;;;22.06;80.96
77793;BME280;66983;51.438;5.438;2023-07-28T10:02:19;100677.63;;;22.13;80.21
77793;BME280;66983;51.438;5.438;2023-07-28T10:04:45;100675.78;;;22.14;80.88
77793;BME280;66983;51.438;5.438;2023-07-28T10:07:12;100669.63;;;22.12;79.21
77793;BME280;66983;51.438;5.438;2023-07-28T10:09:39;100679.81;;;22.19;80.28
77793;BME280;66983;51.438;5.438;2023-07-28T10:12:05;100676.22;;;22.19;81.34
77793;BME280;66983;51.438;5.438;2023-07-28T10:14:35;100671.66;;;22.19;79.95
77793;BME280;66983;51.438;5.438;2023-07-28T10:17:04;100674.41;;;22.29;81.47
77793;BME280;66983;51.438;5.438;2023-07-28T10:19:35;100685.13;;;22.30;80.36
77793;BME280;66983;51.438;5.438;2023-07-28T10:22:11;100671.13;;;22.35;79.64
77793;BME280;66983;51.438;5.438;2023-07-28T10:27:43;100688.59;;;22.52;79.95
77793;BME280;66983;51.438;5.438;2023-07-28T10:30:12;100688.47;;;22.63;78.56
77793;BME280;66983;51.438;5.438;2023-07-28T10:32:48;100685.97;;;22.81;78.85
77793;BME280;66983;51.438;5.438;2023-07-28T10:37:46;100688.81;;;22.98;77.03
77793;BME280;66983;51.438;5.438;2023-07-28T10:40:29;100679.97;;;23.06;74.06
77793;BME280;66983;51.438;5.438;2023-07-28T10:42:57;100672.34;;;23.19;73.65
77793;BME280;66983;51.438;5.438;2023-07-28T10:45:27;100669.75;;;23.37;74.54
77793;BME280;66983;51.438;5.438;2023-07-28T10:47:55;100672.63;;;23.35;71.76
77793;BME280;66983;51.438;5.438;2023-07-28T10:50:22;100667.19;;;23.35;71.08
77793;BME280;66983;51.438;5.438;2023-07-28T10:52:49;100673.47;;;23.36;72.61
77793;BME280;66983;51.438;5.438;2023-07-28T10:55:21;100681.50;;;23.38;72.88
77793;BME280;66983;51.438;5.438;2023-07-28T10:57:49;100666.47;;;23.33;72.26
77793;BME280;66983;51.438;5.438;2023-07-28T11:00:17;100672.88;;;23.42;73.92
77793;BME280;66983;51.438;5.438;2023-07-28T11:02:48;100661.03;;;23.33;73.41
77793;BME280;66983;51.438;5.438;2023-07-28T11:05:29;100666.28;;;23.45;72.42
77793;BME280;66983;51.438;5.438;2023-07-28T11:07:57;100673.53;;;23.73;69.92
77793;BME280;66983;51.438;5.438;2023-07-28T11:10:23;100668.13;;;24.00;70.18
77793;BME280;66983;51.438;5.438;2023-07-28T11:12:51;100670.19;;;24.26;67.51
77793;BME280;66983;51.438;5.438;2023-07-28T11:15:18;100666.97;;;24.40;68.29
77793;BME280;66983;51.438;5.438;2023-07-28T11:17:47;100669.09;;;24.64;67.72
77793;BME280;66983;51.438;5.438;2023-07-28T11:20:17;100675.63;;;24.89;68.87
77793;BME280;66983;51.438;5.438;2023-07-28T11:22:44;100676.34;;;24.91;65.05
77793;BME280;66983;51.438;5.438;2023-07-28T11:25:10;100670.56;;;24.76;67.37
77793;BME280;66983;51.438;5.438;2023-07-28T11:27:38;100675.59;;;24.71;67.63
77793;BME280;66983;51.438;5.438;2023-07-28T11:30:07;100672.03;;;24.70;65.01
77793;BME280;66983;51.438;5.438;2023-07-28T11:32:36;100664.09;;;24.59;66.20
77793;BME280;66983;51.438;5.438;2023-07-28T11:35:07;100674.84;;;24.61;65.80
77793;BME280;66983;51.438;5.438;2023-07-28T11:37:35;100660.91;;;24.64;67.03
77793;BME280;66983;51.438;5.438;2023-07-28T11:40:03;100674.69;;;24.62;66.44
77793;BME280;66983;51.438;5.438;2023-07-28T11:42:34;100668.44;;;24.70;66.18
77793;BME280;66983;51.438;5.438;2023-07-28T11:45:02;100663.06;;;24.78;68.13
77793;BME280;66983;51.438;5.438;2023-07-28T11:47:28;100675.56;;;24.63;65.87
77793;BME280;66983;51.438;5.438;2023-07-28T11:49:54;100668.75;;;24.49;66.12
77793;BME280;66983;51.438;5.438;2023-07-28T11:52:20;100668.72;;;24.31;66.67
77793;BME280;66983;51.438;5.438;2023-07-28T11:54:46;100674.63;;;24.17;68.93
77793;BME280;66983;51.438;5.438;2023-07-28T11:57:13;100663.81;;;24.08;66.82
77793;BME280;66983;51.438;5.438;2023-07-28T11:59:38;100671.00;;;23.99;68.76
77793;BME280;66983;51.438;5.438;2023-07-28T12:02:05;100678.81;;;23.84;69.06
77793;BME280;66983;51.438;5.438;2023-07-28T12:04:35;100670.53;;;23.76;70.39
77793;BME280;66983;51.438;5.438;2023-07-28T12:12:19;100682.47;;;23.46;71.28
77793;BME280;66983;51.438;5.438;2023-07-28T12:14:45;100680.06;;;23.33;71.84
77793;BME280;66983;51.438;5.438;2023-07-28T12:17:14;100679.78;;;23.27;73.04
77793;BME280;66983;51.438;5.438;2023-07-28T12:19:41;100674.91;;;23.21;71.59
77793;BME280;66983;51.438;5.438;2023-07-28T12:22:07;100680.66;;;23.18;71.77
77793;BME280;66983;51.438;5.438;2023-07-28T12:24:33;100685.97;;;23.10;72.24
77793;BME280;66983;51.438;5.438;2023-07-28T12:26:58;100685.41;;;23.06;73.42
77793;BME280;66983;51.438;5.438;2023-07-28T12:29:24;100683.09;;;23.01;71.72
77793;BME280;66983;51.438;5.438;2023-07-28T12:31:49;100690.84;;;23.06;71.66
77793;BME280;66983;51.438;5.438;2023-07-28T12:34:15;100690.69;;;23.08;72.14
77793;BME280;66983;51.438;5.438;2023-07-28T12:36:41;100686.09;;;23.18;72.21
77793;BME280;66983;51.438;5.438;2023-07-28T12:39:07;100684.06;;;23.20;71.66
77793;BME280;66983;51.438;5.438;2023-07-28T12:41:33;100688.66;;;23.29;70.44
77793;BME280;66983;51.438;5.438;2023-07-28T12:43:58;100685.50;;;23.33;70.95
77793;BME280;66983;51.438;5.438;2023-07-28T12:46:24;100692.34;;;23.47;69.78
77793;BME280;66983;51.438;5.438;2023-07-28T12:48:49;100685.47;;;23.62;71.21
77793;BME280;66983;51.438;5.438;2023-07-28T12:51:15;100693.28;;;23.85;70.05
77793;BME280;66983;51.438;5.438;2023-07-28T12:53:40;100691.19;;;24.06;70.70
77793;BME280;66983;51.438;5.438;2023-07-28T12:56:06;100696.97;;;24.21;67.75
77793;BME280;66983;51.438;5.438;2023-07-28T12:58:32;100696.81;;;24.32;67.35